Time;durP1;ratioP1;P1;durP2;ratioP2;P2;SDS_P1;SDS_P2;PMS_P1;PMS_P2;Temp;Humidity;BMP_temperature;BMP_pressure;BME280_temperature;BME280_humidity;BME280_pressure;Samples;Min_cycle;Max_cycle;Signal;HPM_P1;HPM_P2
2021/05/09 00:00:24;;;;;;;7.87;2.87;;;16.30;99.90;;;;;;5001071;28;20654;-77
2021/05/09 00:02:50;;;;;;;8.07;2.70;;;16.30;99.90;;;;;;4971008;28;20221;-77
2021/05/09 00:05:15;;;;;;;7.17;2.70;;;16.30;99.90;;;;;;4971653;28;20224;-77
2021/05/09 00:07:41;;;;;;;7.87;2.70;;;16.30;99.90;;;;;;4971676;28;20218;-77
2021/05/09 00:10:10;;;;;;;6.73;2.40;;;16.30;99.90;;;;;;4971942;28;20182;-76
2021/05/09 00:12:37;;;;;;;5.40;2.30;;;16.30;99.90;;;;;;4971221;28;20189;-77
2021/05/09 00:15:05;;;;;;;9.63;2.63;;;16.20;99.90;;;;;;4970639;28;20190;-77
2021/05/09 00:17:31;;;;;;;7.53;2.67;;;16.10;99.90;;;;;;4973476;28;20252;-77
2021/05/09 00:19:56;;;;;;;6.43;2.67;;;16.10;99.90;;;;;;4970951;28;20184;-77
2021/05/09 00:22:22;;;;;;;6.33;2.73;;;16.00;99.90;;;;;;4971856;28;20192;-78
2021/05/09 00:24:47;;;;;;;8.30;2.60;;;16.10;99.90;;;;;;4971293;28;20193;-77
2021/05/09 00:27:13;;;;;;;7.03;2.57;;;16.10;99.90;;;;;;4970577;28;20232;-74
2021/05/09 00:29:39;;;;;;;7.93;2.50;;;16.10;99.90;;;;;;4969141;28;20181;-75
2021/05/09 00:32:05;;;;;;;6.77;2.70;;;16.00;99.90;;;;;;4969169;28;20225;-76
2021/05/09 00:34:30;;;;;;;9.07;2.60;;;16.10;99.90;;;;;;4971133;28;20221;-76
2021/05/09 00:36:56;;;;;;;11.47;2.70;;;16.00;99.90;;;;;;5000896;28;20205;-76
2021/05/09 00:39:22;;;;;;;10.33;2.60;;;16.00;99.90;;;;;;4972462;28;20196;-75
2021/05/09 00:41:47;;;;;;;7.27;3.10;;;15.90;99.90;;;;;;4970932;28;20194;-75
2021/05/09 00:44:13;;;;;;;7.20;2.60;;;16.00;99.90;;;;;;4984418;28;20240;-75
2021/05/09 00:46:38;;;;;;;7.50;3.07;;;16.10;99.90;;;;;;4972856;28;20191;-75
2021/05/09 00:49:05;;;;;;;10.00;2.83;;;16.00;99.90;;;;;;5001588;28;20189;-76
2021/05/09 00:51:31;;;;;;;8.57;3.20;;;16.10;99.90;;;;;;5002191;28;20239;-75
2021/05/09 00:54:00;;;;;;;7.33;2.77;;;16.10;99.90;;;;;;4985281;28;20201;-75
2021/05/09 00:56:26;;;;;;;9.77;2.90;;;16.00;99.90;;;;;;5002028;28;20664;-75
2021/05/09 00:58:54;;;;;;;6.13;2.57;;;16.00;99.90;;;;;;4970546;28;20192;-75
2021/05/09 01:01:23;;;;;;;9.33;2.70;;;16.00;99.90;;;;;;4970452;28;20201;-75
2021/05/09 01:03:52;;;;;;;6.20;2.90;;;16.00;99.90;;;;;;4971316;28;20191;-75
2021/05/09 01:06:19;;;;;;;8.23;2.70;;;15.90;99.90;;;;;;5001111;28;20197;-76
2021/05/09 01:08:44;;;;;;;5.43;2.30;;;15.90;99.90;;;;;;4970883;28;20292;-76
2021/05/09 01:11:10;;;;;;;9.67;3.13;;;15.80;99.90;;;;;;4969726;28;20274;-76
2021/05/09 01:13:36;;;;;;;6.60;3.00;;;15.90;99.90;;;;;;4970808;28;20208;-76
2021/05/09 01:16:02;;;;;;;7.10;2.50;;;15.90;99.90;;;;;;5001571;28;20181;-75
2021/05/09 01:18:29;;;;;;;10.23;3.10;;;15.80;99.90;;;;;;4969386;28;20275;-75
2021/05/09 01:20:55;;;;;;;9.77;3.47;;;15.70;99.90;;;;;;4969937;28;20206;-76
2021/05/09 01:23:22;;;;;;;10.30;3.17;;;15.70;99.90;;;;;;4969283;28;20278;-77
2021/05/09 01:25:48;;;;;;;7.17;2.80;;;15.60;99.90;;;;;;4971490;28;20196;-75
2021/05/09 01:28:14;;;;;;;9.53;2.87;;;15.60;99.90;;;;;;4984615;28;20207;-75
2021/05/09 01:30:41;;;;;;;9.10;3.20;;;15.50;99.90;;;;;;4982608;28;20271;-76
2021/05/09 01:33:06;;;;;;;9.20;3.10;;;15.50;99.90;;;;;;4999928;28;20237;-75
2021/05/09 01:35:33;;;;;;;8.47;2.90;;;15.50;99.90;;;;;;4970395;28;20942;-75
2021/05/09 01:38:00;;;;;;;6.57;2.93;;;15.50;99.90;;;;;;4970406;28;20188;-76
2021/05/09 01:40:26;;;;;;;9.00;3.10;;;15.40;99.90;;;;;;4969846;28;20246;-75
2021/05/09 01:42:52;;;;;;;8.93;3.10;;;15.40;99.90;;;;;;4981858;28;20576;-76
2021/05/09 01:45:20;;;;;;;10.83;3.50;;;15.30;99.90;;;;;;4976465;28;20504;-76
2021/05/09 01:47:46;;;;;;;9.67;3.47;;;15.20;99.90;;;;;;4984542;28;20789;-76
2021/05/09 01:50:15;;;;;;;10.10;3.40;;;15.20;99.90;;;;;;4970596;28;20181;-76
2021/05/09 01:52:42;;;;;;;11.67;3.60;;;15.10;99.90;;;;;;4965056;28;20715;-76
2021/05/09 01:55:12;;;;;;;10.33;3.63;;;15.10;99.90;;;;;;4970935;28;20191;-76
2021/05/09 01:57:39;;;;;;;9.03;3.23;;;15.20;99.90;;;;;;4975789;28;20195;-76
2021/05/09 02:00:19;;;;;;;9.90;3.80;;;15.10;99.90;;;;;;5004848;28;20189;-76
2021/05/09 02:02:50;;;;;;;9.47;3.70;;;15.10;99.90;;;;;;4985479;28;20667;-76
2021/05/09 02:05:23;;;;;;;8.10;3.53;;;15.10;99.90;;;;;;4973040;28;20255;-76
2021/05/09 02:07:48;;;;;;;8.10;2.93;;;15.00;99.90;;;;;;4973838;28;20198;-76
2021/05/09 02:10:16;;;;;;;10.93;3.53;;;15.10;99.90;;;;;;5004625;28;20647;-76
2021/05/09 02:12:43;;;;;;;8.60;3.27;;;15.00;99.90;;;;;;4972885;28;20199;-76
2021/05/09 02:15:32;;;;;;;7.57;3.37;;;15.10;99.90;;;;;;4967896;28;20192;-75
2021/05/09 02:17:58;;;;;;;7.37;3.13;;;15.00;99.90;;;;;;4973487;28;20706;-76
2021/05/09 02:20:27;;;;;;;11.23;3.37;;;15.00;99.90;;;;;;5004660;28;20192;-76
2021/05/09 02:22:54;;;;;;;8.60;3.20;;;15.00;99.90;;;;;;4986591;28;20186;-75
2021/05/09 02:25:20;;;;;;;7.17;3.00;;;14.90;99.90;;;;;;5005129;28;20191;-76
2021/05/09 02:27:48;;;;;;;8.83;3.27;;;14.90;99.90;;;;;;5002292;28;20265;-76
2021/05/09 02:30:14;;;;;;;11.60;3.27;;;14.80;99.90;;;;;;4973440;28;20191;-77
2021/05/09 02:32:40;;;;;;;9.10;3.67;;;14.80;99.90;;;;;;4998674;28;20191;-76
2021/05/09 02:35:07;;;;;;;8.00;3.50;;;14.80;99.90;;;;;;4974530;28;20769;-76
2021/05/09 02:37:32;;;;;;;9.63;3.30;;;14.80;99.90;;;;;;5008809;28;20564;-76
2021/05/09 02:39:58;;;;;;;8.80;3.37;;;14.80;99.90;;;;;;4969517;28;20191;-77
2021/05/09 02:42:24;;;;;;;9.27;3.33;;;14.80;99.90;;;;;;4972638;28;20177;-77
2021/05/09 02:44:51;;;;;;;7.83;3.20;;;14.90;99.90;;;;;;5000080;28;20235;-77
2021/05/09 02:47:29;;;;;;;11.60;3.53;;;14.90;99.90;;;;;;4972326;28;20290;-77
2021/05/09 02:50:02;;;;;;;8.07;3.27;;;14.90;99.90;;;;;;5002548;28;20202;-76
2021/05/09 02:52:29;;;;;;;7.87;3.03;;;14.90;99.90;;;;;;4972513;28;20307;-77
2021/05/09 02:54:55;;;;;;;10.10;3.33;;;14.80;99.90;;;;;;5004945;28;20652;-77
2021/05/09 02:57:21;;;;;;;8.07;3.20;;;14.90;99.90;;;;;;4972391;28;20278;-77
2021/05/09 02:59:46;;;;;;;7.23;2.80;;;14.80;99.90;;;;;;4972760;28;20192;-77
2021/05/09 03:02:12;;;;;;;9.17;3.00;;;14.70;99.90;;;;;;4971701;28;20210;-77
2021/05/09 03:04:38;;;;;;;9.37;3.03;;;14.90;99.90;;;;;;4973668;28;20554;-76
2021/05/09 03:07:04;;;;;;;8.70;3.20;;;14.90;99.90;;;;;;4971161;28;20352;-77
2021/05/09 03:09:30;;;;;;;9.47;3.97;;;14.90;99.90;;;;;;4971756;28;20183;-76
2021/05/09 03:11:57;;;;;;;14.70;5.07;;;14.70;99.90;;;;;;5004345;28;20190;-77
2021/05/09 03:14:23;;;;;;;11.63;5.10;;;14.80;99.90;;;;;;5001585;28;20191;-77
2021/05/09 03:16:49;;;;;;;16.13;4.97;;;14.80;99.90;;;;;;4973176;28;20710;-77
2021/05/09 03:19:15;;;;;;;16.90;5.50;;;14.70;99.90;;;;;;4973123;28;20198;-77
2021/05/09 03:21:42;;;;;;;15.30;5.63;;;14.70;99.90;;;;;;4972072;28;20680;-77
2021/05/09 03:24:09;;;;;;;15.90;5.53;;;14.70;99.90;;;;;;4972150;28;20255;-77
2021/05/09 03:26:35;;;;;;;17.10;6.13;;;14.70;99.90;;;;;;4970931;28;20249;-77
2021/05/09 03:29:00;;;;;;;17.53;6.10;;;14.80;99.90;;;;;;5002979;28;20962;-76
2021/05/09 03:31:26;;;;;;;16.77;5.80;;;14.80;99.90;;;;;;4971961;28;20194;-74
2021/05/09 03:33:52;;;;;;;15.37;6.00;;;14.70;99.90;;;;;;4971540;28;20198;-76
2021/05/09 03:36:18;;;;;;;18.40;5.77;;;14.80;99.90;;;;;;4972063;28;20222;-76
2021/05/09 03:38:44;;;;;;;16.87;6.07;;;14.70;99.90;;;;;;4971705;28;20249;-76
2021/05/09 03:41:09;;;;;;;14.23;5.70;;;14.70;99.90;;;;;;4971042;28;20191;-76
2021/05/09 03:43:35;;;;;;;15.57;5.33;;;14.60;99.90;;;;;;4968937;28;20190;-76
2021/05/09 03:46:00;;;;;;;14.00;5.20;;;14.60;99.90;;;;;;4971625;28;20219;-76
2021/05/09 03:48:26;;;;;;;13.13;4.80;;;14.60;99.90;;;;;;4972686;28;20229;-76
2021/05/09 03:50:52;;;;;;;13.17;4.90;;;14.70;99.90;;;;;;4970387;28;20311;-76
2021/05/09 03:53:17;;;;;;;10.47;4.73;;;14.70;99.90;;;;;;5003923;28;20237;-76
2021/05/09 03:55:43;;;;;;;9.23;3.77;;;14.70;99.90;;;;;;4971524;28;20191;-76
2021/05/09 03:58:09;;;;;;;12.67;4.10;;;14.70;99.90;;;;;;4971566;28;20203;-75
2021/05/09 04:00:34;;;;;;;9.67;3.70;;;14.60;99.90;;;;;;5001926;28;20195;-77
2021/05/09 04:03:00;;;;;;;9.07;3.77;;;14.50;99.90;;;;;;4986897;28;20692;-77
2021/05/09 04:05:26;;;;;;;8.67;3.33;;;14.50;99.90;;;;;;5002780;28;20195;-77
2021/05/09 04:07:52;;;;;;;9.77;2.93;;;14.50;99.90;;;;;;4954685;28;20203;-77
2021/05/09 04:10:18;;;;;;;8.37;3.00;;;14.60;99.90;;;;;;5003521;28;20174;-76
2021/05/09 04:12:43;;;;;;;6.43;3.10;;;14.50;99.90;;;;;;4969346;28;20684;-76
2021/05/09 04:15:10;;;;;;;8.40;3.27;;;14.40;99.90;;;;;;4971317;28;20637;-76
2021/05/09 04:17:35;;;;;;;9.63;3.47;;;14.40;99.90;;;;;;4971460;28;20182;-77
2021/05/09 04:20:01;;;;;;;8.77;3.43;;;14.40;99.90;;;;;;4969547;28;20193;-77
2021/05/09 04:22:27;;;;;;;7.30;3.13;;;14.40;99.90;;;;;;4971870;28;20197;-76
2021/05/09 04:24:52;;;;;;;7.23;2.73;;;14.40;99.90;;;;;;4970265;28;20191;-77
2021/05/09 04:27:18;;;;;;;8.97;2.70;;;14.50;99.90;;;;;;4970831;28;20204;-76
2021/05/09 04:29:44;;;;;;;6.47;3.07;;;14.50;99.90;;;;;;4970868;28;20601;-76
2021/05/09 04:32:09;;;;;;;5.77;3.00;;;14.50;99.90;;;;;;4971299;28;20198;-76
2021/05/09 04:34:35;;;;;;;9.23;3.30;;;14.50;99.90;;;;;;4970049;28;20230;-76
2021/05/09 04:37:00;;;;;;;8.87;3.30;;;14.50;99.90;;;;;;4968845;28;20195;-76
2021/05/09 04:39:26;;;;;;;7.73;3.37;;;14.70;99.90;;;;;;4971432;28;20211;-76
2021/05/09 04:41:52;;;;;;;9.40;3.00;;;15.20;99.90;;;;;;4970634;28;20240;-76
2021/05/09 04:44:18;;;;;;;7.57;2.67;;;15.70;99.90;;;;;;4970600;28;20235;-76
2021/05/09 04:46:44;;;;;;;10.33;3.37;;;16.10;99.90;;;;;;4971201;28;20691;-77
2021/05/09 04:49:10;;;;;;;7.90;3.10;;;16.40;99.90;;;;;;4969297;28;20217;-76
2021/05/09 04:51:35;;;;;;;7.37;2.77;;;16.70;99.90;;;;;;4971532;28;20188;-76
2021/05/09 04:54:01;;;;;;;7.37;2.63;;;17.20;99.90;;;;;;4970343;28;20191;-76
2021/05/09 04:56:27;;;;;;;7.17;2.57;;;17.50;99.90;;;;;;4986716;28;20190;-76
2021/05/09 04:58:52;;;;;;;5.73;2.27;;;17.60;99.90;;;;;;4969619;28;20201;-76
2021/05/09 05:01:18;;;;;;;7.70;2.70;;;17.80;99.90;;;;;;4970359;28;20273;-76
2021/05/09 05:03:44;;;;;;;7.17;2.43;;;17.90;99.90;;;;;;4970438;28;20187;-76
2021/05/09 05:06:09;;;;;;;6.30;2.63;;;18.00;99.90;;;;;;4969282;28;20206;-75
2021/05/09 05:08:35;;;;;;;6.97;2.80;;;18.00;99.90;;;;;;4976446;28;20759;-76
2021/05/09 05:11:04;;;;;;;7.27;2.60;;;18.30;99.90;;;;;;4969585;28;20221;-76
2021/05/09 05:13:31;;;;;;;6.07;2.40;;;18.70;99.90;;;;;;4970271;28;20191;-76
2021/05/09 05:16:02;;;;;;;4.90;2.30;;;18.90;99.90;;;;;;5001272;28;20568;-75
2021/05/09 05:18:28;;;;;;;7.33;2.50;;;19.50;99.90;;;;;;5000852;28;20601;-75
2021/05/09 05:20:57;;;;;;;7.60;2.40;;;19.90;99.90;;;;;;4969640;28;20198;-75
2021/05/09 05:23:22;;;;;;;7.50;2.17;;;20.10;99.90;;;;;;4966901;28;20657;-76
2021/05/09 05:25:48;;;;;;;7.10;2.53;;;20.40;99.90;;;;;;5001640;28;20209;-75
2021/05/09 05:28:14;;;;;;;5.53;2.33;;;20.70;99.90;;;;;;4971306;28;20247;-76
2021/05/09 05:30:40;;;;;;;10.10;2.43;;;21.00;99.90;;;;;;4970876;28;20576;-77
2021/05/09 05:33:06;;;;;;;4.97;2.23;;;21.10;99.90;;;;;;5006311;28;20174;-77
2021/05/09 05:35:33;;;;;;;5.13;2.40;;;20.80;99.90;;;;;;4970699;28;20697;-76
2021/05/09 05:37:59;;;;;;;5.93;2.07;;;20.50;99.90;;;;;;5004420;28;20226;-77
2021/05/09 05:40:25;;;;;;;8.13;2.50;;;20.20;99.90;;;;;;4972727;28;20681;-76
2021/05/09 05:42:52;;;;;;;7.23;2.57;;;19.90;99.90;;;;;;4973766;28;20761;-78
2021/05/09 05:45:18;;;;;;;6.87;2.50;;;19.90;99.90;;;;;;4973914;28;20195;-77
2021/05/09 05:47:47;;;;;;;7.30;2.40;;;20.00;99.90;;;;;;4972050;28;20211;-75
2021/05/09 05:50:13;;;;;;;7.87;2.30;;;20.10;99.90;;;;;;4973425;28;20179;-76
2021/05/09 05:52:39;;;;;;;7.83;2.30;;;20.50;99.90;;;;;;4973633;28;20203;-77
2021/05/09 05:55:06;;;;;;;7.57;2.13;;;21.20;99.90;;;;;;5004577;28;20663;-77
2021/05/09 05:57:31;;;;;;;5.43;2.13;;;21.90;99.90;;;;;;4975560;28;20661;-77
2021/05/09 05:59:57;;;;;;;7.37;2.20;;;22.00;99.90;;;;;;5005731;28;20189;-75
2021/05/09 06:02:23;;;;;;;6.07;2.17;;;22.00;99.90;;;;;;4974219;28;20208;-76
2021/05/09 06:04:48;;;;;;;5.03;2.27;;;21.50;99.90;;;;;;4972673;28;20189;-77
2021/05/09 06:07:14;;;;;;;5.90;2.17;;;20.90;99.90;;;;;;5006382;28;20210;-77
2021/05/09 06:09:40;;;;;;;6.13;2.23;;;20.40;99.90;;;;;;4971591;28;20209;-77
2021/05/09 06:12:07;;;;;;;3.87;1.80;;;20.50;99.90;;;;;;4973636;28;20659;-75
2021/05/09 06:14:33;;;;;;;6.07;1.93;;;20.40;99.90;;;;;;4973724;28;20184;-76
2021/05/09 06:16:59;;;;;;;8.87;2.50;;;20.60;99.90;;;;;;4969522;28;20187;-75
2021/05/09 06:19:25;;;;;;;4.57;1.90;;;20.80;99.90;;;;;;5000535;28;20899;-76
2021/05/09 06:21:50;;;;;;;3.47;1.63;;;20.90;99.90;;;;;;4971513;28;20649;-75
2021/05/09 06:24:16;;;;;;;3.60;1.90;;;21.50;99.90;;;;;;4973071;28;20188;-75
2021/05/09 06:26:42;;;;;;;6.70;1.90;;;21.70;99.90;;;;;;4986760;28;20239;-76
2021/05/09 06:29:07;;;;;;;5.50;1.80;;;21.50;99.90;;;;;;4970521;28;20765;-76
2021/05/09 06:31:33;;;;;;;4.57;1.90;;;21.30;99.90;;;;;;4972660;28;20200;-76
2021/05/09 06:33:59;;;;;;;5.90;1.80;;;21.00;99.90;;;;;;4972127;28;20260;-76
2021/05/09 06:36:25;;;;;;;6.20;2.07;;;20.60;99.90;;;;;;4972504;28;20574;-75
2021/05/09 06:38:50;;;;;;;6.80;2.40;;;20.90;99.90;;;;;;4973349;28;20673;-75
2021/05/09 06:41:19;;;;;;;6.27;1.93;;;20.90;99.90;;;;;;5003539;28;20209;-75
2021/05/09 06:43:45;;;;;;;5.87;1.90;;;20.90;99.90;;;;;;4989738;28;20183;-75
2021/05/09 06:46:10;;;;;;;4.73;1.83;;;20.70;99.90;;;;;;4972232;28;20233;-75
2021/05/09 06:48:36;;;;;;;4.33;1.77;;;20.50;99.90;;;;;;4974342;28;20209;-76
2021/05/09 06:51:02;;;;;;;3.60;1.73;;;20.70;99.90;;;;;;4971533;28;20661;-76
2021/05/09 06:53:28;;;;;;;5.47;1.93;;;21.40;99.90;;;;;;4972330;28;20194;-76
2021/05/09 06:55:55;;;;;;;4.13;1.80;;;22.60;99.90;;;;;;4972911;28;20683;-76
2021/05/09 06:58:22;;;;;;;6.27;2.00;;;23.20;99.90;;;;;;4971735;28;20252;-76
2021/05/09 07:00:49;;;;;;;8.03;1.80;;;23.90;99.90;;;;;;4972074;28;20894;-76
2021/05/09 07:03:15;;;;;;;5.63;1.90;;;23.80;99.90;;;;;;5003472;28;20187;-76
2021/05/09 07:05:41;;;;;;;5.07;1.90;;;24.50;99.90;;;;;;4973054;28;20683;-76
2021/05/09 07:08:07;;;;;;;2.77;1.70;;;25.40;99.90;;;;;;4974621;28;20261;-76
2021/05/09 07:10:34;;;;;;;5.25;1.60;;;25.60;99.90;;;;;;4972359;28;20851;-76
2021/05/09 07:13:00;;;;;;;5.57;1.90;;;25.20;99.90;;;;;;5003221;28;20190;-76
2021/05/09 07:15:29;;;;;;;4.32;1.70;;;25.10;99.90;;;;;;4971632;28;20191;-76
2021/05/09 07:18:26;;;;;;;4.60;1.92;;;25.00;99.90;;;;;;4970964;28;20198;-77
2021/05/09 07:20:56;;;;;;;5.07;1.80;;;25.40;99.90;;;;;;4972612;28;20206;-76
2021/05/09 07:23:23;;;;;;;4.22;1.83;;;27.20;99.90;;;;;;5003408;28;20195;-76
2021/05/09 07:25:50;;;;;;;5.22;1.98;;;28.40;99.80;;;;;;4972222;28;20179;-76
2021/05/09 07:28:17;;;;;;;4.28;1.83;;;28.20;97.90;;;;;;4970655;28;20215;-76
2021/05/09 07:30:44;;;;;;;4.97;1.90;;;28.10;98.30;;;;;;5004187;28;20207;-75
2021/05/09 07:33:12;;;;;;;6.40;2.08;;;28.40;96.20;;;;;;4972213;28;20187;-76
2021/05/09 07:35:39;;;;;;;4.93;2.00;;;28.00;97.40;;;;;;5001711;28;20227;-76
2021/05/09 07:38:06;;;;;;;5.28;1.85;;;26.50;97.30;;;;;;4966564;28;20193;-75
2021/05/09 07:40:32;;;;;;;5.22;2.10;;;25.10;99.90;;;;;;4973902;28;20187;-75
2021/05/09 07:42:58;;;;;;;5.85;2.08;;;24.60;99.90;;;;;;4971227;28;20187;-76
2021/05/09 07:45:24;;;;;;;6.25;2.20;;;24.80;99.90;;;;;;4969343;28;20568;-76
2021/05/09 07:47:51;;;;;;;5.03;2.10;;;25.00;99.90;;;;;;5006641;28;20654;-77
2021/05/09 07:50:18;;;;;;;5.47;2.10;;;24.80;99.90;;;;;;5001434;28;20274;-77
2021/05/09 07:52:48;;;;;;;7.43;2.03;;;24.20;99.90;;;;;;4971068;28;20183;-76
2021/05/09 07:55:15;;;;;;;5.80;1.80;;;23.90;99.90;;;;;;4970264;28;20203;-77
2021/05/09 07:57:42;;;;;;;4.27;1.70;;;23.80;99.90;;;;;;4970897;28;20724;-77
2021/05/09 08:00:14;;;;;;;7.07;1.90;;;23.50;99.90;;;;;;4969421;28;20186;-77
2021/05/09 08:02:41;;;;;;;6.63;1.83;;;23.60;99.90;;;;;;4970375;28;20218;-77
2021/05/09 08:05:08;;;;;;;4.80;1.73;;;23.10;99.90;;;;;;4970505;28;20199;-77
2021/05/09 08:07:34;;;;;;;5.07;1.73;;;23.00;99.90;;;;;;4969166;28;20210;-77
2021/05/09 08:09:59;;;;;;;4.43;1.67;;;23.10;99.90;;;;;;4970790;28;20556;-77
2021/05/09 08:12:25;;;;;;;6.57;1.83;;;23.10;99.90;;;;;;4972400;28;20267;-77
2021/05/09 08:14:51;;;;;;;4.87;2.10;;;23.20;99.90;;;;;;4970556;28;20185;-77
2021/05/09 08:17:16;;;;;;;4.90;1.90;;;23.00;99.90;;;;;;4970425;28;20187;-77
2021/05/09 08:19:42;;;;;;;5.73;1.90;;;22.90;99.90;;;;;;4972925;28;20634;-77
2021/05/09 08:22:08;;;;;;;6.07;1.97;;;22.90;99.90;;;;;;4968505;28;20219;-77
2021/05/09 08:24:34;;;;;;;3.33;1.80;;;22.90;99.90;;;;;;4972571;28;20199;-76
2021/05/09 08:27:00;;;;;;;5.50;2.00;;;22.90;99.90;;;;;;4968856;28;20193;-77
2021/05/09 08:29:26;;;;;;;4.07;1.93;;;22.90;99.90;;;;;;4970783;28;20206;-78
2021/05/09 08:31:53;;;;;;;4.10;1.93;;;23.10;99.90;;;;;;4968989;28;20503;-78
2021/05/09 08:34:18;;;;;;;6.73;1.93;;;23.20;99.90;;;;;;4970198;28;20199;-78
2021/05/09 08:36:44;;;;;;;3.60;1.83;;;23.30;99.90;;;;;;4970608;28;20182;-78
2021/05/09 08:39:10;;;;;;;3.13;1.60;;;24.50;99.90;;;;;;4971757;28;20262;-78
2021/05/09 08:41:41;;;;;;;5.20;1.73;;;26.10;99.90;;;;;;5003821;28;20187;-78
2021/05/09 08:44:10;;;;;;;3.37;1.70;;;25.80;99.90;;;;;;4970493;28;20187;-78
2021/05/09 08:46:37;;;;;;;4.97;2.00;;;25.20;99.90;;;;;;5003481;28;20182;-78
2021/05/09 08:49:04;;;;;;;4.37;1.90;;;24.60;99.90;;;;;;4971163;28;20210;-78
2021/05/09 08:51:31;;;;;;;4.27;2.07;;;24.50;99.90;;;;;;4971591;28;20191;-78
2021/05/09 08:53:56;;;;;;;4.67;2.10;;;24.50;99.90;;;;;;4972056;28;20176;-78
2021/05/09 08:56:24;;;;;;;5.60;1.77;;;24.90;99.90;;;;;;4970826;28;20284;-78
2021/05/09 08:58:50;;;;;;;3.70;1.80;;;24.90;99.90;;;;;;4972068;28;20665;-78
2021/05/09 09:01:16;;;;;;;6.47;2.00;;;24.70;99.90;;;;;;4970394;28;20222;-78
2021/05/09 09:03:42;;;;;;;7.83;2.10;;;23.80;99.90;;;;;;4970965;28;20199;-78
2021/05/09 09:06:12;;;;;;;9.77;2.30;;;23.40;99.90;;;;;;4973691;28;20225;-78
2021/05/09 09:08:51;;;;;;;4.93;2.20;;;22.90;99.90;;;;;;4978149;28;20202;-78
2021/05/09 09:11:28;;;;;;;6.03;2.77;;;22.50;99.90;;;;;;4977890;28;20186;-79
2021/05/09 09:14:11;;;;;;;4.13;2.00;;;22.60;99.90;;;;;;4977071;28;20208;-79
2021/05/09 09:16:38;;;;;;;4.10;2.30;;;22.30;99.90;;;;;;5015964;28;20181;-78
2021/05/09 09:19:11;;;;;;;8.43;2.33;;;22.30;99.90;;;;;;4975726;28;20193;-78
2021/05/09 09:21:37;;;;;;;5.67;2.00;;;22.20;99.90;;;;;;4978414;28;20181;-78
2021/05/09 09:24:10;;;;;;;7.00;2.40;;;22.20;99.90;;;;;;4978683;28;20205;-78
2021/05/09 09:26:40;;;;;;;6.83;2.50;;;22.50;99.90;;;;;;4977356;28;20264;-78
2021/05/09 09:29:25;;;;;;;5.67;2.23;;;23.40;99.90;;;;;;4976661;28;20285;-78
2021/05/09 09:31:57;;;;;;;3.87;2.27;;;24.50;99.90;;;;;;4977574;28;20201;-78
2021/05/09 09:34:38;;;;;;;5.37;1.80;;;26.60;99.90;;;;;;4978522;28;20210;-78
2021/05/09 09:37:05;;;;;;;4.97;2.30;;;27.70;99.90;;;;;;4992069;28;20649;-78
2021/05/09 09:40:03;;;;;;;5.75;1.80;;;28.00;99.90;;;;;;4980159;28;20186;-79
2021/05/09 09:42:39;;;;;;;5.13;2.05;;;28.60;98.20;;;;;;4964726;28;20539;-78
2021/05/09 09:45:15;;;;;;;4.97;2.00;;;28.20;97.90;;;;;;5009938;28;20197;-78
2021/05/09 09:47:55;;;;;;;5.00;2.03;;;27.40;98.90;;;;;;4974691;28;20760;-79
2021/05/09 09:50:41;;;;;;;4.35;1.95;;;27.30;99.90;;;;;;4977549;28;20266;-79
2021/05/09 09:53:33;;;;;;;8.68;2.38;;;27.10;99.10;;;;;;4989492;28;20277;-78
2021/05/09 09:56:10;;;;;;;6.45;2.00;;;26.00;99.90;;;;;;4977760;28;20285;-78
2021/05/09 09:58:58;;;;;;;7.07;1.90;;;25.90;99.90;;;;;;4975373;28;20183;-78
2021/05/09 10:01:34;;;;;;;5.85;2.30;;;25.70;99.90;;;;;;4978403;28;20528;-78
2021/05/09 10:04:05;;;;;;;4.88;1.80;;;25.20;99.90;;;;;;4976576;28;20245;-79
2021/05/09 10:06:32;;;;;;;2.97;2.00;;;24.90;99.90;;;;;;5008814;28;20217;-78
2021/05/09 10:08:58;;;;;;;4.67;2.40;;;24.40;99.90;;;;;;5010184;28;20230;-78
2021/05/09 10:11:26;;;;;;;13.73;8.83;;;24.10;99.90;;;;;;4975351;28;20191;-79
2021/05/09 10:13:54;;;;;;;5.40;2.03;;;24.70;99.90;;;;;;4993742;28;20195;-78
2021/05/09 10:16:22;;;;;;;4.77;2.50;;;24.70;99.90;;;;;;4993922;28;20190;-78
2021/05/09 10:18:55;;;;;;;9.60;2.25;;;24.60;99.90;;;;;;4990979;28;20186;-78
2021/05/09 10:21:32;;;;;;;5.57;2.10;;;24.50;99.90;;;;;;4974407;28;20717;-78
2021/05/09 10:24:11;;;;;;;5.10;2.47;;;24.30;99.90;;;;;;4991705;28;20193;-77
2021/05/09 10:26:58;;;;;;;8.40;2.67;;;24.20;99.90;;;;;;4988708;28;20182;-78
2021/05/09 10:29:33;;;;;;;4.50;2.47;;;24.00;99.90;;;;;;4973332;28;20199;-79
2021/05/09 10:32:18;;;;;;;8.23;2.40;;;23.90;99.90;;;;;;4974718;28;20179;-78
2021/05/09 10:34:56;;;;;;;6.43;2.47;;;23.70;99.90;;;;;;5003081;28;20227;-78
2021/05/09 10:40:36;;;;;;;10.90;2.63;;;23.40;99.90;;;;;;4974180;28;20251;-78
2021/05/09 10:43:02;;;;;;;7.90;2.43;;;23.20;99.90;;;;;;4975945;28;20278;-78
2021/05/09 10:45:29;;;;;;;4.93;2.43;;;23.10;99.90;;;;;;5003976;28;20269;-78
2021/05/09 10:48:24;;;;;;;4.53;2.37;;;23.10;99.90;;;;;;4973147;28;20286;-79
2021/05/09 10:51:03;;;;;;;6.03;2.60;;;22.90;99.90;;;;;;5002267;28;20219;-78
2021/05/09 10:53:35;;;;;;;7.47;2.50;;;22.80;99.90;;;;;;4972888;28;20234;-79
2021/05/09 10:56:02;;;;;;;6.07;2.50;;;22.60;99.90;;;;;;5005830;28;20606;-77
2021/05/09 10:58:47;;;;;;;6.73;2.30;;;22.40;99.90;;;;;;4974096;28;20281;-78
2021/05/09 11:01:24;;;;;;;9.03;2.80;;;21.90;99.90;;;;;;4978341;28;20573;-77
2021/05/09 11:03:53;;;;;;;6.37;2.60;;;21.80;99.90;;;;;;4988928;28;20190;-77
2021/05/09 11:06:20;;;;;;;10.13;3.00;;;21.70;99.90;;;;;;4973273;28;20190;-77
2021/05/09 11:08:50;;;;;;;8.43;3.10;;;21.80;99.90;;;;;;4973920;28;20221;-78
2021/05/09 11:11:25;;;;;;;8.30;3.30;;;21.70;99.90;;;;;;5003591;28;20203;-78
2021/05/09 11:14:10;;;;;;;8.03;3.53;;;21.20;99.90;;;;;;5005182;28;20707;-77
2021/05/09 11:16:37;;;;;;;8.60;3.70;;;21.20;99.90;;;;;;4971494;28;20181;-77
2021/05/09 11:19:14;;;;;;;10.40;3.80;;;21.70;99.90;;;;;;4973110;28;20594;-78
2021/05/09 11:21:55;;;;;;;8.90;3.07;;;23.00;99.90;;;;;;4989681;28;20197;-78
2021/05/09 11:24:24;;;;;;;6.23;2.93;;;24.40;99.90;;;;;;4975482;28;20186;-78
2021/05/09 11:26:54;;;;;;;8.30;2.47;;;26.00;99.90;;;;;;5004201;28;20195;-78
2021/05/09 11:29:22;;;;;;;5.53;2.28;;;26.90;99.90;;;;;;4973109;28;20290;-78
2021/05/09 11:31:49;;;;;;;6.72;2.10;;;27.10;99.90;;;;;;4972206;28;20269;-77
2021/05/09 11:34:16;;;;;;;5.35;2.00;;;27.10;99.90;;;;;;4971905;28;20187;-77
2021/05/09 11:36:46;;;;;;;6.90;1.90;;;26.90;99.90;;;;;;4972655;28;20205;-77
2021/05/09 11:39:18;;;;;;;5.18;2.00;;;26.80;99.90;;;;;;4972105;28;20258;-77
2021/05/09 11:42:01;;;;;;;5.60;2.20;;;26.60;99.90;;;;;;4972920;28;20190;-78
2021/05/09 11:44:30;;;;;;;6.30;2.90;;;26.50;99.90;;;;;;4968359;28;20190;-78
2021/05/09 11:46:57;;;;;;;6.68;2.35;;;26.40;99.90;;;;;;4970736;28;20618;-77
2021/05/09 11:49:31;;;;;;;5.18;2.30;;;26.80;99.90;;;;;;4977094;28;20225;-77
2021/05/09 11:51:59;;;;;;;4.78;2.45;;;27.30;99.90;;;;;;4970000;28;20183;-78
2021/05/09 11:54:27;;;;;;;5.75;2.60;;;27.20;99.90;;;;;;4970860;28;20223;-77
2021/05/09 11:56:54;;;;;;;8.18;2.70;;;28.00;99.90;;;;;;4970433;28;20210;-77
2021/05/09 11:59:36;;;;;;;6.90;2.58;;;29.50;99.90;;;;;;5002978;28;21922;-77
2021/05/09 12:02:21;;;;;;;7.95;2.67;;;29.70;99.10;;;;;;5001523;28;20195;-78
2021/05/09 12:04:48;;;;;;;6.05;2.10;;;30.10;98.50;;;;;;4971787;28;20218;-80
2021/05/09 12:07:22;;;;;;;5.00;2.00;;;30.30;96.70;;;;;;4971382;28;20693;-77
2021/05/09 12:09:50;;;;;;;9.75;2.38;;;30.40;97.00;;;;;;5001604;28;20262;-76
2021/05/09 12:12:20;;;;;;;5.60;2.38;;;29.70;96.50;;;;;;4970451;28;20270;-77
2021/05/09 12:14:47;;;;;;;5.32;2.40;;;29.30;95.50;;;;;;4971393;28;20191;-77
2021/05/09 12:17:27;;;;;;;7.07;2.28;;;28.90;95.70;;;;;;4971920;28;20178;-78
2021/05/09 12:19:55;;;;;;;15.82;6.57;;;28.50;95.90;;;;;;4970496;28;20183;-78
2021/05/09 12:22:22;;;;;;;6.22;2.05;;;27.80;97.20;;;;;;4971953;28;20610;-78
2021/05/09 12:24:56;;;;;;;7.53;3.38;;;27.70;97.40;;;;;;4971798;28;20235;-78
2021/05/09 12:27:24;;;;;;;7.53;2.42;;;27.20;97.50;;;;;;4986590;28;20201;-78
2021/05/09 12:29:54;;;;;;;7.95;4.05;;;27.60;98.60;;;;;;4972687;28;20606;-78
2021/05/09 12:32:24;;;;;;;9.25;3.17;;;27.90;97.10;;;;;;4971388;28;20202;-78
2021/05/09 12:35:11;;;;;;;7.55;3.90;;;27.10;98.00;;;;;;5001718;28;20701;-78
2021/05/09 12:37:42;;;;;;;8.48;4.53;;;26.90;98.40;;;;;;4971845;28;20238;-78
2021/05/09 12:40:25;;;;;;;8.98;4.30;;;26.90;99.90;;;;;;4985917;28;20199;-78
2021/05/09 12:42:56;;;;;;;5.45;2.17;;;27.10;99.10;;;;;;4970158;28;20546;-80
2021/05/09 12:45:32;;;;;;;8.85;3.90;;;26.80;98.00;;;;;;4970485;28;20290;-78
2021/05/09 12:48:13;;;;;;;7.25;2.40;;;26.90;99.00;;;;;;4971327;28;20210;-77
2021/05/09 12:50:48;;;;;;;7.90;2.75;;;26.90;97.70;;;;;;4970657;28;20187;-77
2021/05/09 12:53:34;;;;;;;7.75;3.97;;;26.90;97.70;;;;;;4986052;28;20191;-77
2021/05/09 12:56:14;;;;;;;10.23;6.07;;;27.10;97.70;;;;;;4970428;28;20237;-77